Time;durP1;ratioP1;P1;durP2;ratioP2;P2;SDS_P1;SDS_P2;PMS_P1;PMS_P2;Temp;Humidity;BMP_temperature;BMP_pressure;BME280_temperature;BME280_humidity;BME280_pressure;Samples;Min_cycle;Max_cycle;Signal;HPM_P1;HPM_P2
2024/01/03 00:01:30;;;;;;;136.90;60.00;;;;;;;7.03;67.18;100016.48;108137;1282;22007;-59
2024/01/03 00:03:56;;;;;;;100.00;45.40;;;;;;;7.04;67.25;100013.16;108161;1281;22449;-61
2024/01/03 00:06:21;;;;;;;90.00;41.10;;;;;;;7.06;67.36;100016.11;108137;1286;21995;-62
2024/01/03 00:08:47;;;;;;;85.70;40.10;;;;;;;7.08;67.51;100020.64;108120;1286;21991;-58
2024/01/03 00:11:22;;;;;;;65.90;32.00;;;;;;;7.05;67.13;100021.00;108127;1286;21989;-61
2024/01/03 00:14:06;;;;;;;77.60;36.50;;;;;;;7.02;66.75;100019.79;108101;1286;21987;-61
2024/01/03 00:16:36;;;;;;;60.40;33.30;;;;;;;6.97;66.83;100022.77;108157;1276;22453;-58
2024/01/03 00:19:03;;;;;;;86.00;42.90;;;;;;;6.94;66.99;100026.63;108178;1281;21992;-59
2024/01/03 00:21:29;;;;;;;89.70;45.00;;;;;;;6.93;67.16;100026.45;108170;1281;22029;-60
2024/01/03 00:23:56;;;;;;;77.50;37.60;;;;;;;6.94;67.23;100021.73;108140;1277;21996;-61
2024/01/03 00:26:23;;;;;;;53.10;27.80;;;;;;;6.94;67.19;100013.90;108104;1286;21998;-61
2024/01/03 00:28:48;;;;;;;39.50;22.00;;;;;;;6.96;67.37;100012.13;108215;1279;22001;-61
2024/01/03 00:31:29;;;;;;;35.00;19.40;;;;;;;6.99;67.27;100011.96;108130;1283;21991;-61
2024/01/03 00:33:54;;;;;;;;;;;;;;;7.03;67.58;100011.08;108134;1286;22014;-60
2024/01/03 00:36:20;;;;;;;31.00;19.40;;;;;;;7.07;67.99;100006.50;108150;1286;21993;-59
2024/01/03 00:38:45;;;;;;;40.70;25.10;;;;;;;7.10;67.78;100008.42;108168;1281;21990;-61
2024/01/03 00:41:12;;;;;;;31.10;19.70;;;;;;;7.10;67.70;100007.89;108132;1285;21986;-61
2024/01/03 00:43:41;;;;;;;19.90;12.90;;;;;;;7.10;67.58;100011.38;108106;1286;22450;-59
2024/01/03 00:46:12;;;;;;;15.90;9.30;;;;;;;7.08;67.62;100014.52;108104;1286;21991;-61
2024/01/03 00:48:37;;;;;;;11.80;5.90;;;;;;;7.06;67.27;100011.59;107961;1282;205776;-61
2024/01/03 00:51:03;;;;;;;10.80;5.80;;;;;;;7.04;67.32;100016.30;108133;1286;21997;-59
2024/01/03 00:53:29;;;;;;;12.40;5.20;;;;;;;7.02;67.45;100020.51;108166;1279;21984;-59
2024/01/03 00:55:55;;;;;;;8.20;4.20;;;;;;;6.98;67.11;100019.81;108211;1286;21997;-62
2024/01/03 00:58:20;;;;;;;8.80;4.70;;;;;;;6.94;67.03;100017.02;108135;1275;22456;-62
2024/01/03 01:00:47;;;;;;;9.10;4.70;;;;;;;6.91;67.28;100017.21;108112;1280;21983;-60
2024/01/03 01:03:12;;;;;;;9.30;4.10;;;;;;;6.89;67.33;100020.70;108104;1280;21993;-59
2024/01/03 01:05:39;;;;;;;12.60;4.70;;;;;;;6.88;67.25;100021.22;108131;1277;21962;-61
2024/01/03 01:08:05;;;;;;;8.80;4.40;;;;;;;6.87;67.10;100019.65;108106;1277;22000;-59
2024/01/03 01:10:30;;;;;;;10.50;5.10;;;;;;;6.85;67.32;100016.17;107362;1282;1002422;-59
2024/01/03 01:12:56;;;;;;;9.90;4.20;;;;;;;6.82;67.07;100015.67;108028;1285;22023;-58
2024/01/03 01:15:22;;;;;;;9.80;4.30;;;;;;;6.79;66.84;100018.83;108012;1274;22002;-62
2024/01/03 01:17:47;;;;;;;10.00;4.40;;;;;;;6.75;66.75;100021.27;108047;1283;23710;-58
2024/01/03 01:20:13;;;;;;;8.80;4.30;;;;;;;6.75;67.01;100017.77;108018;1285;21995;-56
2024/01/03 01:22:39;;;;;;;8.70;4.10;;;;;;;6.74;67.12;100013.77;108008;1285;21988;-60
2024/01/03 01:25:05;;;;;;;8.80;4.10;;;;;;;6.74;67.22;100011.33;108339;1285;21997;-60
2024/01/03 01:27:31;;;;;;;9.70;4.30;;;;;;;6.73;67.45;100011.16;108098;1285;21983;-60
2024/01/03 01:29:57;;;;;;;7.90;4.30;;;;;;;6.73;67.37;100010.81;108129;1285;23853;-62
2024/01/03 01:32:22;;;;;;;8.70;4.50;;;;;;;6.73;67.34;100011.69;108111;1284;23644;-63
2024/01/03 01:34:47;;;;;;;10.10;4.20;;;;;;;6.72;67.47;100017.44;108278;1281;21992;-60
2024/01/03 01:37:13;;;;;;;7.50;3.90;;;;;;;6.72;67.46;100018.14;108284;1277;21988;-62
2024/01/03 01:39:40;;;;;;;7.80;4.10;;;;;;;6.70;67.61;100015.17;108090;1284;21970;-59
2024/01/03 01:42:05;;;;;;;9.50;4.30;;;;;;;6.69;67.54;100016.73;108063;1285;21990;-59
2024/01/03 01:44:31;;;;;;;11.90;4.50;;;;;;;6.69;67.65;100015.17;108047;1273;22223;-59
2024/01/03 01:46:57;;;;;;;8.20;4.30;;;;;;;6.70;67.72;100014.13;108090;1278;21995;-62
2024/01/03 01:49:22;;;;;;;9.40;4.30;;;;;;;6.70;67.54;100016.92;108181;1279;21989;-62
2024/01/03 01:51:48;;;;;;;9.90;4.50;;;;;;;6.68;67.54;100017.44;108101;1286;21980;-60
2024/01/03 01:54:13;;;;;;;14.00;4.60;;;;;;;6.68;67.76;100014.48;108064;1281;21982;-60
2024/01/03 01:56:39;;;;;;;11.40;4.90;;;;;;;6.69;67.61;100014.30;108089;1278;21987;-62
2024/01/03 01:59:06;;;;;;;11.90;5.20;;;;;;;6.68;67.59;100012.05;108097;1274;22023;-60
2024/01/03 02:01:31;;;;;;;9.50;5.20;;;;;;;6.67;67.75;100007.86;108174;1285;22044;-62
2024/01/03 02:03:57;;;;;;;9.90;4.30;;;;;;;6.67;67.83;100005.94;108033;1285;21985;-63
2024/01/03 02:06:22;;;;;;;9.80;5.00;;;;;;;6.67;67.80;100002.27;108094;1281;23306;-60
2024/01/03 02:08:48;;;;;;;11.60;5.30;;;;;;;6.70;67.98;99998.44;108130;1285;21993;-62
2024/01/03 02:11:14;;;;;;;9.20;4.80;;;;;;;6.75;68.19;99991.27;108176;1280;21986;-63
2024/01/03 02:13:43;;;;;;;10.10;4.70;;;;;;;6.81;68.38;99986.38;108301;1285;22017;-60
2024/01/03 02:16:08;;;;;;;9.80;4.50;;;;;;;6.86;68.48;99989.50;108263;1280;21991;-60
2024/01/03 02:18:34;;;;;;;9.30;4.50;;;;;;;6.90;68.16;99991.40;108284;1285;21986;-62
2024/01/03 02:20:59;;;;;;;9.50;4.40;;;;;;;6.91;68.08;99993.66;108304;1273;23666;-59
2024/01/03 02:23:25;;;;;;;9.80;4.20;;;;;;;6.89;68.25;99994.70;108308;1285;21986;-61
2024/01/03 02:25:50;;;;;;;8.60;4.00;;;;;;;6.89;67.92;99994.19;108280;1275;21997;-60
2024/01/03 02:28:16;;;;;;;7.80;3.80;;;;;;;6.87;67.62;99994.55;108119;1285;21989;-58
2024/01/03 02:30:44;;;;;;;7.60;3.70;;;;;;;6.86;67.62;99994.55;108231;1285;22738;-62
2024/01/03 02:33:11;;;;;;;6.90;3.60;;;;;;;6.85;67.62;99991.41;108227;1280;22006;-59
2024/01/03 02:35:37;;;;;;;8.30;3.80;;;;;;;6.85;67.65;99988.10;108235;1277;22444;-60
2024/01/03 02:38:03;;;;;;;7.30;3.60;;;;;;;6.87;67.70;99992.11;108136;1285;22008;-59
2024/01/03 02:40:29;;;;;;;7.80;4.50;;;;;;;6.88;67.78;99990.71;108219;1285;22450;-62
2024/01/03 02:42:54;;;;;;;9.20;4.20;;;;;;;6.88;67.87;99988.78;108227;1277;21988;-59
2024/01/03 02:45:20;;;;;;;10.40;3.90;;;;;;;6.88;68.00;99988.09;108257;1283;21989;-61
2024/01/03 02:47:45;;;;;;;8.50;3.70;;;;;;;6.89;67.94;99988.61;108128;1281;21983;-59
2024/01/03 02:50:11;;;;;;;9.80;4.00;;;;;;;6.88;67.83;99987.23;108097;1284;21985;-59
2024/01/03 02:52:36;;;;;;;8.10;3.90;;;;;;;6.84;67.49;99983.23;108068;1280;22025;-62
2024/01/03 02:55:02;;;;;;;8.60;3.40;;;;;;;6.82;67.75;99979.23;108113;1285;22034;-62
2024/01/03 02:57:28;;;;;;;9.80;4.20;;;;;;;6.82;67.91;99973.30;107290;1285;1002598;-62
2024/01/03 02:59:53;;;;;;;6.90;3.70;;;;;;;6.83;68.14;99972.59;108159;1281;21981;-60
2024/01/03 03:02:19;;;;;;;10.70;4.10;;;;;;;6.83;67.97;99968.94;108283;1281;21993;-60
2024/01/03 03:04:44;;;;;;;9.90;4.20;;;;;;;6.79;67.53;99965.80;107568;1280;1002355;-62
2024/01/03 03:07:10;;;;;;;8.70;4.40;;;;;;;6.73;67.36;99960.59;108310;1280;21998;-62
2024/01/03 03:09:36;;;;;;;10.20;4.00;;;;;;;6.67;67.17;99961.98;107576;1274;1002489;-59
2024/01/03 03:12:01;;;;;;;8.40;4.10;;;;;;;6.65;67.36;99960.08;107462;1274;1002485;-59
2024/01/03 03:14:27;;;;;;;8.00;3.50;;;;;;;6.65;67.58;99958.52;108196;1285;21999;-59
2024/01/03 03:16:52;;;;;;;7.40;3.30;;;;;;;6.66;67.74;99957.81;108212;1285;21986;-59
2024/01/03 03:19:18;;;;;;;8.40;4.00;;;;;;;6.67;68.10;99956.76;107473;1280;1002523;-61
2024/01/03 03:21:43;;;;;;;10.20;3.70;;;;;;;6.67;68.16;99957.46;107576;1277;1002265;-63
2024/01/03 03:24:09;;;;;;;10.70;4.00;;;;;;;6.67;68.24;99958.52;107513;1275;1002554;-62
2024/01/03 03:26:34;;;;;;;6.80;3.90;;;;;;;6.67;68.13;99956.42;107332;1285;1002348;-59
2024/01/03 03:29:00;;;;;;;9.20;3.90;;;;;;;6.67;67.75;99952.59;107344;1285;1003106;-59
2024/01/03 03:31:25;;;;;;;10.10;4.00;;;;;;;6.67;67.90;99954.50;108175;1274;22032;-62
2024/01/03 03:33:51;;;;;;;9.90;4.00;;;;;;;6.68;67.90;99955.73;108145;1285;22043;-59
2024/01/03 03:36:17;;;;;;;13.90;4.70;;;;;;;6.68;67.94;99954.84;108040;1285;21982;-61
2024/01/03 03:38:42;;;;;;;8.30;4.30;;;;;;;6.68;67.97;99957.11;107294;1285;1003105;-61
2024/01/03 03:41:10;;;;;;;7.80;3.80;;;;;;;6.69;68.16;99957.82;108172;1280;21990;-61
2024/01/03 03:43:36;;;;;;;8.00;3.60;;;;;;;6.69;68.24;99955.71;107346;1274;1002515;-59
2024/01/03 03:46:01;;;;;;;10.70;4.20;;;;;;;6.68;67.98;99952.57;107279;1285;1003025;-62
2024/01/03 03:48:27;;;;;;;8.40;4.40;;;;;;;6.68;68.17;99953.10;108116;1285;22009;-59
2024/01/03 03:50:53;;;;;;;8.10;3.40;;;;;;;6.68;68.56;99950.13;108017;1285;21991;-59
2024/01/03 03:53:18;;;;;;;7.50;3.60;;;;;;;6.68;68.04;99950.14;108154;1285;21981;-60
2024/01/03 03:55:44;;;;;;;8.30;3.90;;;;;;;6.66;67.95;99950.84;108042;1274;21992;-62
2024/01/03 03:58:09;;;;;;;8.50;3.80;;;;;;;6.63;67.76;99946.31;108127;1285;22010;-61
2024/01/03 04:00:35;;;;;;;9.00;3.70;;;;;;;6.64;68.07;99942.48;108050;1285;21985;-58
2024/01/03 04:03:01;;;;;;;7.80;4.00;;;;;;;6.66;68.58;99936.73;108086;1280;22017;-62
2024/01/03 04:05:26;;;;;;;7.40;4.00;;;;;;;6.70;68.64;99932.70;108107;1279;22017;-59
2024/01/03 04:07:52;;;;;;;8.80;3.60;;;;;;;6.76;68.82;99931.11;108089;1285;22007;-61
2024/01/03 04:10:17;;;;;;;7.80;3.10;;;;;;;6.81;68.62;99928.82;108046;1285;21993;-59
2024/01/03 04:12:43;;;;;;;9.70;4.10;;;;;;;6.88;68.73;99924.60;108034;1285;21998;-62
2024/01/03 04:15:08;;;;;;;7.40;3.30;;;;;;;6.94;69.25;99919.87;108185;1285;22018;-61
2024/01/03 04:17:35;;;;;;;10.60;3.80;;;;;;;6.99;69.24;99913.92;108085;1284;21983;-59
2024/01/03 04:20:00;;;;;;;6.40;3.10;;;;;;;7.06;69.46;99911.79;108062;1285;21983;-61
2024/01/03 04:22:26;;;;;;;10.20;3.70;;;;;;;7.11;69.40;99914.90;108079;1274;21991;-62
2024/01/03 04:24:54;;;;;;;12.90;4.20;;;;;;;7.16;69.30;99915.91;108073;1285;21984;-61
2024/01/03 04:27:20;;;;;;;9.20;4.10;;;;;;;7.21;69.72;99911.00;107278;1285;1002785;-61
2024/01/03 04:29:45;;;;;;;8.50;3.90;;;;;;;7.25;69.40;99904.88;108028;1281;22039;-59
2024/01/03 04:32:11;;;;;;;10.20;3.90;;;;;;;7.26;69.37;99904.70;108045;1280;21993;-61
2024/01/03 04:34:39;;;;;;;8.00;3.50;;;;;;;7.25;69.08;99905.05;108083;1279;21983;-61
2024/01/03 04:37:05;;;;;;;9.50;3.80;;;;;;;7.24;68.72;99904.71;108149;1285;21980;-59
2024/01/03 04:39:30;;;;;;;8.50;3.30;;;;;;;7.22;68.35;99908.21;108238;1285;21976;-58
2024/01/03 04:41:56;;;;;;;7.30;3.10;;;;;;;7.20;68.18;99912.41;108090;1285;21984;-61
2024/01/03 04:44:21;;;;;;;10.00;3.20;;;;;;;7.19;68.23;99913.11;108028;1285;21993;-61
2024/01/03 04:46:47;;;;;;;8.00;3.50;;;;;;;7.19;68.36;99913.11;108056;1274;21979;-59
2024/01/03 04:49:12;;;;;;;5.90;3.00;;;;;;;7.21;68.59;99911.71;108030;1285;22023;-59
2024/01/03 04:51:38;;;;;;;7.80;3.00;;;;;;;7.22;68.46;99912.58;108048;1277;21993;-61
2024/01/03 04:54:03;;;;;;;8.90;3.60;;;;;;;7.22;68.45;99911.86;108044;1285;21983;-59
2024/01/03 04:56:29;;;;;;;8.90;3.60;;;;;;;7.22;68.59;99915.02;108022;1274;23025;-59
2024/01/03 04:58:55;;;;;;;8.20;3.80;;;;;;;7.20;68.02;99916.07;108110;1275;21985;-61
2024/01/03 05:01:21;;;;;;;9.80;3.90;;;;;;;7.19;67.96;99915.55;108000;1280;22027;-58
2024/01/03 05:03:46;;;;;;;8.90;3.70;;;;;;;7.20;67.82;99918.52;107288;1280;1002929;-58
2024/01/03 05:06:12;;;;;;;9.10;4.30;;;;;;;7.18;67.37;99925.52;108066;1285;22164;-59
2024/01/03 05:08:37;;;;;;;9.70;4.30;;;;;;;7.21;67.33;99933.69;107353;1280;1002633;-61
2024/01/03 05:11:03;;;;;;;9.00;3.90;;;;;;;7.23;67.39;99932.10;107319;1285;1002282;-61
2024/01/03 05:13:29;;;;;;;9.20;4.40;;;;;;;7.24;67.22;99924.60;108044;1285;22157;-59
2024/01/03 05:15:57;;;;;;;9.40;4.00;;;;;;;7.23;66.98;99921.48;108073;1280;21994;-59
2024/01/03 05:18:22;;;;;;;8.30;4.20;;;;;;;7.17;66.73;99920.61;108099;1280;22491;-59
2024/01/03 05:20:49;;;;;;;8.40;3.50;;;;;;;7.12;66.72;99918.39;108185;1273;21981;-62
2024/01/03 05:23:15;;;;;;;8.60;4.00;;;;;;;7.15;67.04;99911.56;108274;1276;21994;-60
2024/01/03 05:25:41;;;;;;;7.80;3.90;;;;;;;7.20;67.18;99905.78;108168;1279;21995;-60
2024/01/03 05:28:06;;;;;;;8.70;4.00;;;;;;;7.24;67.49;99904.17;108075;1274;21981;-60
2024/01/03 05:30:32;;;;;;;8.90;3.40;;;;;;;7.30;67.76;99903.79;108083;1280;21991;-61
2024/01/03 05:32:58;;;;;;;8.80;4.20;;;;;;;7.35;67.69;99902.02;108123;1280;21976;-60
2024/01/03 05:35:23;;;;;;;11.40;4.80;;;;;;;7.39;68.06;99904.95;108114;1285;21997;-62
2024/01/03 05:37:51;;;;;;;11.40;3.90;;;;;;;7.44;68.45;99904.58;108074;1279;21990;-61
2024/01/03 05:40:18;;;;;;;12.70;3.60;;;;;;;7.46;68.65;99902.64;108158;1285;21986;-62
2024/01/03 05:42:44;;;;;;;11.80;4.10;;;;;;;7.51;69.76;99899.80;107321;1281;1002970;-62
2024/01/03 05:45:09;;;;;;;11.70;3.90;;;;;;;7.60;70.12;99896.77;108155;1275;21982;-57
2024/01/03 05:47:35;;;;;;;11.00;4.10;;;;;;;7.69;70.28;99893.39;108119;1283;22461;-58
2024/01/03 05:50:00;;;;;;;10.90;4.00;;;;;;;7.75;70.07;99888.45;108168;1274;21995;-62
2024/01/03 05:52:26;;;;;;;8.50;4.20;;;;;;;7.79;69.89;99887.52;108092;1283;21987;-58
2024/01/03 05:54:51;;;;;;;10.90;4.30;;;;;;;7.80;69.27;99889.96;108069;1283;21983;-57
2024/01/03 05:57:17;;;;;;;10.40;4.80;;;;;;;7.79;68.85;99886.13;108079;1285;21988;-57
2024/01/03 05:59:43;;;;;;;11.60;5.40;;;;;;;7.79;68.72;99881.42;108079;1274;21988;-59
2024/01/03 06:02:08;;;;;;;12.20;5.40;;;;;;;7.72;67.38;99881.48;108096;1285;22452;-59
2024/01/03 06:04:34;;;;;;;13.80;5.70;;;;;;;7.60;67.10;99881.23;108095;1285;21989;-59
2024/01/03 06:06:59;;;;;;;16.40;6.90;;;;;;;7.50;67.13;99880.45;108070;1281;22040;-59
2024/01/03 06:09:25;;;;;;;15.30;7.20;;;;;;;7.40;66.77;99881.56;108092;1285;21987;-60
2024/01/03 06:11:50;;;;;;;14.30;6.20;;;;;;;7.32;66.76;99879.52;108073;1273;21979;-61
2024/01/03 06:14:16;;;;;;;19.20;7.40;;;;;;;7.24;66.97;99877.30;108065;1285;22038;-60
2024/01/03 06:16:42;;;;;;;11.60;6.50;;;;;;;7.19;67.38;99870.53;108081;1286;21989;-58
2024/01/03 06:19:07;;;;;;;13.30;6.10;;;;;;;7.15;67.52;99864.45;108110;1286;21989;-62
2024/01/03 06:21:33;;;;;;;12.00;5.30;;;;;;;7.13;67.81;99861.14;108081;1286;22000;-60
2024/01/03 06:23:59;;;;;;;12.10;5.40;;;;;;;7.11;67.89;99857.84;108115;1280;21989;-58
2024/01/03 06:26:29;;;;;;;15.40;7.10;;;;;;;7.12;68.13;99855.22;108108;1286;21989;-61
2024/01/03 06:28:54;;;;;;;17.00;7.40;;;;;;;7.10;67.83;99851.20;108072;1286;21991;-59
2024/01/03 06:31:22;;;;;;;18.20;7.50;;;;;;;7.08;67.77;99845.47;108049;1286;21996;-59
2024/01/03 06:33:49;;;;;;;17.70;7.70;;;;;;;7.07;68.14;99843.21;108123;1286;21995;-62
2024/01/03 06:36:14;;;;;;;16.60;6.70;;;;;;;7.08;68.36;99837.63;108082;1277;22021;-62
2024/01/03 06:38:40;;;;;;;15.90;7.00;;;;;;;7.11;68.59;99834.30;108100;1286;21980;-62
2024/01/03 06:41:06;;;;;;;17.80;6.70;;;;;;;7.16;68.95;99831.46;108130;1280;21987;-61
2024/01/03 06:43:32;;;;;;;15.40;6.80;;;;;;;7.20;69.29;99831.44;108173;1276;21986;-59
2024/01/03 06:45:57;;;;;;;14.30;7.80;;;;;;;7.28;69.59;99828.59;108099;1286;22033;-58
2024/01/03 06:48:24;;;;;;;16.00;8.20;;;;;;;7.39;70.24;99822.74;108130;1286;22432;-59
2024/01/03 06:50:50;;;;;;;16.70;8.60;;;;;;;7.52;70.51;99819.48;108109;1277;21993;-61
2024/01/03 06:53:16;;;;;;;17.60;9.60;;;;;;;7.63;70.84;99811.89;108085;1284;21989;-61
2024/01/03 06:55:41;;;;;;;16.60;10.20;;;;;;;7.72;71.70;99802.71;108112;1275;21987;-60
2024/01/03 06:58:07;;;;;;;18.30;10.00;;;;;;;7.84;71.83;99805.05;108073;1286;23013;-61
2024/01/03 07:00:32;;;;;;;18.10;9.90;;;;;;;7.96;71.86;99800.90;108172;1286;22022;-61
2024/01/03 07:02:58;;;;;;;16.10;9.50;;;;;;;8.10;72.13;99799.20;108192;1276;21989;-59
2024/01/03 07:05:23;;;;;;;20.80;10.30;;;;;;;8.22;72.47;99790.65;108111;1286;22463;-61
2024/01/03 07:07:49;;;;;;;20.00;11.30;;;;;;;8.36;72.90;99785.77;108110;1277;22019;-59
2024/01/03 07:10:14;;;;;;;17.50;10.30;;;;;;;8.50;72.79;99778.95;108128;1284;21989;-60
2024/01/03 07:12:40;;;;;;;19.80;10.70;;;;;;;8.57;72.85;99770.13;107357;1277;1006130;-59
2024/01/03 07:15:06;;;;;;;19.70;11.00;;;;;;;8.67;72.66;99766.84;108118;1284;21989;-59
2024/01/03 07:17:32;;;;;;;17.70;10.60;;;;;;;8.74;72.47;99761.48;108095;1274;22015;-62
2024/01/03 07:19:58;;;;;;;19.30;11.30;;;;;;;8.81;72.27;99757.20;108109;1276;21993;-60
2024/01/03 07:22:23;;;;;;;19.90;11.50;;;;;;;8.87;72.22;99756.22;108059;1275;21984;-61
2024/01/03 07:24:49;;;;;;;17.40;10.20;;;;;;;8.95;72.32;99757.85;108109;1284;21993;-60
2024/01/03 07:27:15;;;;;;;19.10;10.90;;;;;;;9.01;72.15;99751.11;108088;1277;21983;-60
2024/01/03 07:29:41;;;;;;;17.40;10.50;;;;;;;9.05;72.06;99744.05;108129;1284;22097;-60
2024/01/03 07:32:07;;;;;;;19.40;10.90;;;;;;;9.07;72.06;99738.23;108114;1286;21986;-59
2024/01/03 07:34:33;;;;;;;21.20;11.80;;;;;;;9.12;71.95;99740.09;108174;1274;22009;-58
2024/01/03 07:36:59;;;;;;;23.70;14.30;;;;;;;9.13;72.07;99737.78;108111;1276;21977;-62
2024/01/03 07:39:24;;;;;;;21.70;13.00;;;;;;;9.15;72.13;99741.27;108083;1279;22077;-60
2024/01/03 07:41:50;;;;;;;20.60;13.10;;;;;;;9.18;72.24;99737.20;108084;1286;21953;-62
2024/01/03 07:44:16;;;;;;;20.50;13.00;;;;;;;9.20;72.20;99730.14;108119;1275;21987;-60
2024/01/03 07:46:42;;;;;;;23.60;12.40;;;;;;;9.18;72.33;99721.60;108075;1277;21995;-61
2024/01/03 07:49:07;;;;;;;18.60;11.40;;;;;;;9.20;72.49;99716.85;108093;1276;22003;-59
2024/01/03 07:51:38;;;;;;;16.70;11.80;;;;;;;9.25;72.44;99711.34;108049;1273;22002;-60
2024/01/03 07:54:04;;;;;;;19.70;11.90;;;;;;;9.29;72.62;99708.13;108050;1273;21986;-62
2024/01/03 07:56:30;;;;;;;21.50;12.60;;;;;;;9.34;72.74;99708.71;108078;1281;21983;-63
2024/01/03 07:58:58;;;;;;;25.10;14.20;;;;;;;9.40;73.16;99707.02;108075;1285;22024;-61
2024/01/03 08:01:24;;;;;;;26.00;14.10;;;;;;;9.45;73.42;99700.46;108180;1285;21993;-61
2024/01/03 08:03:54;;;;;;;24.20;13.20;;;;;;;9.46;73.91;99704.30;108149;1274;21984;-61
2024/01/03 08:06:23;;;;;;;19.30;11.90;;;;;;;9.49;74.41;99705.12;108126;1280;21989;-61
2024/01/03 08:08:49;;;;;;;22.90;12.90;;;;;;;9.54;74.55;99700.66;108034;1281;22090;-59
2024/01/03 08:11:14;;;;;;;22.80;14.20;;;;;;;9.59;74.94;99691.45;108185;1285;21988;-62
2024/01/03 08:13:40;;;;;;;22.10;13.40;;;;;;;9.63;75.28;99687.35;108052;1281;21985;-61
2024/01/03 08:16:08;;;;;;;20.30;13.00;;;;;;;9.66;75.63;99686.77;108055;1285;21956;-62
2024/01/03 08:18:34;;;;;;;22.10;13.90;;;;;;;9.71;76.47;99689.48;108193;1277;21997;-61
2024/01/03 08:20:59;;;;;;;20.40;13.40;;;;;;;9.76;76.83;99686.56;108061;1285;21986;-59
2024/01/03 08:23:26;;;;;;;23.40;13.40;;;;;;;9.83;77.08;99686.60;108315;1280;21998;-60
2024/01/03 08:25:52;;;;;;;21.40;13.00;;;;;;;9.89;77.44;99686.30;108361;1285;22024;-59
2024/01/03 08:28:17;;;;;;;26.50;15.60;;;;;;;9.96;77.89;99682.48;108354;1285;21983;-61
2024/01/03 08:30:43;;;;;;;22.00;13.80;;;;;;;10.04;77.91;99685.48;108300;1273;21980;-61
2024/01/03 08:33:08;;;;;;;23.20;14.70;;;;;;;10.12;77.84;99684.43;108227;1285;21985;-59
2024/01/03 08:35:34;;;;;;;22.20;13.90;;;;;;;10.17;78.35;99679.05;108064;1285;21990;-61
2024/01/03 08:37:59;;;;;;;22.40;14.30;;;;;;;10.23;78.34;99670.51;108076;1284;21998;-63
2024/01/03 08:40:25;;;;;;;19.30;12.90;;;;;;;10.28;78.83;99658.65;108172;1274;22040;-60
2024/01/03 08:42:51;;;;;;;22.00;13.60;;;;;;;10.34;78.99;99648.00;108326;1284;21986;-60
2024/01/03 08:45:16;;;;;;;20.40;12.70;;;;;;;10.40;78.97;99637.53;108125;1285;21996;-62
2024/01/03 08:47:42;;;;;;;18.90;13.20;;;;;;;10.44;79.55;99632.00;108324;1285;21987;-62
2024/01/03 08:50:08;;;;;;;19.30;12.10;;;;;;;10.53;79.46;99629.16;108214;1285;21997;-60
2024/01/03 08:52:34;;;;;;;21.30;13.10;;;;;;;10.62;79.43;99626.86;108257;1274;21998;-63
2024/01/03 08:55:00;;;;;;;17.90;10.60;;;;;;;10.71;79.47;99624.54;108338;1285;21986;-60
2024/01/03 08:57:25;;;;;;;15.70;9.60;;;;;;;10.82;79.40;99625.83;108323;1285;21993;-61
2024/01/03 08:59:51;;;;;;;11.40;7.30;;;;;;;10.94;79.24;99619.56;108324;1285;21986;-61
2024/01/03 09:02:16;;;;;;;15.70;8.30;;;;;;;11.06;79.19;99606.41;108120;1285;21990;-62
2024/01/03 09:04:42;;;;;;;12.50;7.20;;;;;;;11.22;79.11;99596.00;107988;1285;22071;-59
2024/01/03 09:07:07;;;;;;;13.50;7.00;;;;;;;11.38;79.07;99591.87;108023;1285;22002;-61
2024/01/03 09:09:33;;;;;;;12.90;6.40;;;;;;;11.51;78.82;99600.98;108177;1285;22454;-62
2024/01/03 09:11:58;;;;;;;11.80;5.80;;;;;;;11.54;78.76;99602.30;108238;1285;21992;-60
2024/01/03 09:14:24;;;;;;;9.80;5.50;;;;;;;11.68;78.77;99591.17;108175;1285;21985;-60
2024/01/03 09:16:50;;;;;;;9.90;4.90;;;;;;;11.81;78.65;99587.96;108065;1285;22025;-61
2024/01/03 09:19:16;;;;;;;11.60;4.90;;;;;;;11.97;78.88;99574.86;108118;1285;22021;-59
2024/01/03 09:21:45;;;;;;;10.40;5.90;;;;;;;12.03;78.92;99571.36;108121;1274;22006;-61
2024/01/03 09:24:11;;;;;;;13.70;5.30;;;;;;;12.05;79.01;99565.86;108004;1285;21991;-61
2024/01/03 09:26:37;;;;;;;10.50;5.70;;;;;;;12.13;78.99;99556.80;108122;1285;21994;-59
2024/01/03 09:29:02;;;;;;;12.50;5.10;;;;;;;12.18;78.57;99549.27;108052;1278;21992;-61
2024/01/03 09:31:30;;;;;;;10.90;5.20;;;;;;;12.26;78.68;99540.91;108056;1281;22035;-61
2024/01/03 09:33:56;;;;;;;9.90;5.20;;;;;;;12.31;78.38;99530.55;108017;1283;21993;-61
2024/01/03 09:36:21;;;;;;;9.30;4.70;;;;;;;12.39;78.21;99527.98;108057;1285;21983;-59
2024/01/03 09:38:47;;;;;;;8.50;4.80;;;;;;;12.50;77.82;99517.05;108328;1285;21983;-58
2024/01/03 09:41:13;;;;;;;8.50;4.40;;;;;;;12.57;77.88;99509.98;108047;1285;22059;-59
2024/01/03 09:43:42;;;;;;;12.40;4.50;;;;;;;12.64;77.81;99506.20;108099;1280;21990;-61
2024/01/03 09:46:10;;;;;;;8.70;4.30;;;;;;;12.79;77.72;99496.17;108059;1285;21984;-61
2024/01/03 09:48:39;;;;;;;11.90;4.80;;;;;;;12.91;77.23;99493.30;108259;1285;22022;-61
2024/01/03 09:51:05;;;;;;;8.60;4.60;;;;;;;13.04;76.25;99490.88;108159;1285;22008;-61
2024/01/03 09:53:31;;;;;;;11.20;4.60;;;;;;;13.03;74.98;99487.94;108036;1285;22037;-60
2024/01/03 09:55:56;;;;;;;12.80;4.80;;;;;;;13.00;74.04;99484.15;108143;1285;21983;-59
2024/01/03 09:58:24;;;;;;;8.20;4.10;;;;;;;12.92;73.06;99480.58;108050;1285;21995;-61
2024/01/03 10:00:50;;;;;;;7.60;3.80;;;;;;;13.16;73.40;99479.55;108128;1285;22021;-61
2024/01/03 10:03:16;;;;;;;7.20;4.10;;;;;;;13.07;72.46;99472.63;108072;1285;21984;-61
2024/01/03 10:05:43;;;;;;;7.90;4.00;;;;;;;13.14;72.93;99465.70;108052;1285;21980;-59
2024/01/03 10:08:16;;;;;;;9.20;4.20;;;;;;;13.19;72.73;99457.41;108074;1285;22021;-60
2024/01/03 10:10:44;;;;;;;9.20;4.20;;;;;;;13.25;71.98;99450.64;108170;1285;23812;-61
2024/01/03 10:13:19;;;;;;;11.90;4.30;;;;;;;13.26;71.02;99435.13;108082;1277;22005;-59
2024/01/03 10:15:46;;;;;;;7.20;3.80;;;;;;;13.49;71.45;99420.52;108146;1285;21973;-60
2024/01/03 10:18:14;;;;;;;9.20;3.90;;;;;;;13.56;70.06;99414.24;108054;1285;21992;-61
2024/01/03 10:20:40;;;;;;;10.30;3.90;;;;;;;13.61;68.25;99414.41;108063;1285;21989;-61
2024/01/03 10:23:10;;;;;;;6.80;3.10;;;;;;;13.59;66.14;99403.92;108062;1285;22163;-61
2024/01/03 10:25:40;;;;;;;6.60;3.50;;;;;;;13.84;66.60;99399.20;108117;1285;24066;-62
2024/01/03 10:28:16;;;;;;;6.40;3.50;;;;;;;14.07;67.00;99384.66;106722;1285;1002583;-59
2024/01/03 10:30:42;;;;;;;8.40;3.40;;;;;;;14.14;64.33;99375.16;108139;1286;21983;-61
2024/01/03 10:33:09;;;;;;;8.30;3.30;;;;;;;14.29;63.90;99368.70;108093;1285;21986;-61
2024/01/03 10:35:36;;;;;;;8.10;3.70;;;;;;;14.36;62.90;99360.13;108115;1285;22030;-60
2024/01/03 10:38:02;;;;;;;7.90;3.70;;;;;;;14.24;60.59;99352.72;110130;1285;21920;-62
2024/01/03 10:40:32;;;;;;;7.10;3.60;;;;;;;14.42;61.13;99344.14;108637;1285;23094;-59
2024/01/03 10:42:58;;;;;;;6.50;2.90;;;;;;;14.46;59.47;99339.92;108154;1283;22026;-60
2024/01/03 10:45:24;;;;;;;7.30;3.30;;;;;;;14.62;59.81;99341.29;108103;1285;22000;-60
2024/01/03 10:47:50;;;;;;;6.10;3.50;;;;;;;14.74;59.00;99336.36;108054;1285;22004;-60
2024/01/03 10:50:16;;;;;;;9.30;3.60;;;;;;;14.73;58.20;99335.55;108115;1285;21996;-62
2024/01/03 10:52:43;;;;;;;7.00;3.00;;;;;;;14.84;57.75;99322.13;108136;1285;21990;-61
2024/01/03 10:55:09;;;;;;;7.40;3.20;;;;;;;14.82;56.96;99313.61;108148;1285;21995;-61
2024/01/03 10:57:35;;;;;;;6.40;3.20;;;;;;;14.72;56.68;99310.16;108084;1285;22458;-60
2024/01/03 11:00:12;;;;;;;5.70;3.00;;;;;;;14.64;56.30;99310.48;108127;1285;21979;-60
2024/01/03 11:02:53;;;;;;;7.20;3.10;;;;;;;14.64;56.36;99300.42;108098;1285;23628;-59
2024/01/03 11:05:23;;;;;;;4.80;2.60;;;;;;;14.61;55.79;99295.80;108119;1285;21995;-61
2024/01/03 11:07:52;;;;;;;5.90;2.30;;;;;;;14.68;55.73;99295.48;108138;1285;21997;-61
2024/01/03 11:11:06;;;;;;;4.70;2.20;;;;;;;14.73;56.18;99293.70;108134;1285;21987;-60
2024/01/03 11:13:32;;;;;;;5.30;2.80;;;;;;;14.48;54.63;99295.36;108084;1285;22024;-60
2024/01/03 11:15:59;;;;;;;6.30;2.90;;;;;;;14.47;54.80;99296.80;108167;1285;21991;-60
2024/01/03 11:18:40;;;;;;;6.50;2.60;;;;;;;14.53;55.08;99282.41;108173;1274;21997;-59